Time;durP1;ratioP1;P1;durP2;ratioP2;P2;SDS_P1;SDS_P2;PMS_P1;PMS_P2;Temp;Humidity;BMP_temperature;BMP_pressure;BME280_temperature;BME280_humidity;BME280_pressure;Samples;Min_cycle;Max_cycle;Signal;HPM_P1;HPM_P2
2021/12/19 00:01:05;;;;;;;63.58;26.98;;;5.60;99.90;;;;;;4961580;28;20055;-55
2021/12/19 00:11:10;;;;;;;73.28;29.45;;;5.60;99.90;;;;;;4985215;28;20026;-57
2021/12/19 00:13:36;;;;;;;82.47;29.58;;;5.60;99.90;;;;;;4988553;28;20481;-56
2021/12/19 00:16:01;;;;;;;73.93;27.70;;;5.60;99.90;;;;;;4995658;28;20026;-59
2021/12/19 00:18:27;;;;;;;76.05;29.83;;;5.60;99.90;;;;;;4980179;28;20038;-55
2021/12/19 00:20:53;;;;;;;73.75;28.63;;;5.70;99.90;;;;;;5006767;28;20101;-57
2021/12/19 00:23:18;;;;;;;75.38;30.13;;;5.70;99.90;;;;;;4993029;28;20034;-54
2021/12/19 00:25:45;;;;;;;78.05;30.05;;;5.70;99.90;;;;;;4993586;28;20385;-59
2021/12/19 00:28:10;;;;;;;77.95;29.73;;;5.70;99.90;;;;;;4983626;28;20027;-57
2021/12/19 00:30:36;;;;;;;79.55;29.77;;;5.70;99.90;;;;;;4982187;28;20488;-60
2021/12/19 00:33:02;;;;;;;82.65;31.42;;;5.70;99.90;;;;;;4979930;28;20312;-59
2021/12/19 00:35:27;;;;;;;83.30;30.45;;;5.70;99.90;;;;;;4986369;28;20472;-58
2021/12/19 00:37:54;;;;;;;82.55;31.08;;;5.70;99.90;;;;;;4987601;28;20031;-59
2021/12/19 00:40:20;;;;;;;85.18;32.90;;;5.70;99.90;;;;;;4978560;28;20030;-51
2021/12/19 00:43:02;;;;;;;79.10;30.98;;;5.70;99.90;;;;;;4987468;28;20100;-53
2021/12/19 00:45:32;;;;;;;82.63;30.30;;;5.70;99.90;;;;;;4983698;28;20428;-55
2021/12/19 00:47:59;;;;;;;87.65;30.42;;;5.70;99.90;;;;;;4986817;28;20116;-58
2021/12/19 00:50:25;;;;;;;106.15;34.70;;;5.70;99.90;;;;;;4988421;28;20073;-54
2021/12/19 00:52:51;;;;;;;84.75;30.05;;;5.70;99.90;;;;;;4980429;28;20042;-57
2021/12/19 00:55:18;;;;;;;124.30;33.53;;;5.80;99.90;;;;;;4979351;28;20505;-55
2021/12/19 00:57:45;;;;;;;91.75;30.50;;;5.70;99.90;;;;;;4981664;28;20038;-55
2021/12/19 01:00:14;;;;;;;98.97;33.70;;;5.70;99.90;;;;;;4981301;28;20022;-57
2021/12/19 01:02:39;;;;;;;92.95;30.27;;;5.80;99.90;;;;;;4968187;28;20197;-57
2021/12/19 01:05:06;;;;;;;149.50;31.63;;;5.80;99.90;;;;;;4986884;28;20105;-56
2021/12/19 01:07:32;;;;;;;145.05;33.28;;;5.80;99.90;;;;;;4982209;28;20121;-60
2021/12/19 01:09:58;;;;;;;101.63;33.03;;;5.80;99.90;;;;;;4976449;28;20675;-56
2021/12/19 01:12:24;;;;;;;93.75;31.48;;;5.80;99.90;;;;;;4979222;28;20028;-54
2021/12/19 01:14:51;;;;;;;86.90;29.65;;;5.80;99.90;;;;;;4982482;28;20033;-60
2021/12/19 01:17:16;;;;;;;111.30;32.00;;;5.80;99.90;;;;;;4984289;28;20481;-59
2021/12/19 01:19:44;;;;;;;109.70;32.90;;;5.80;99.90;;;;;;4991165;28;20124;-55
2021/12/19 01:22:10;;;;;;;92.43;31.05;;;5.80;99.90;;;;;;4986785;28;20035;-58
2021/12/19 01:24:36;;;;;;;97.60;32.20;;;5.80;99.90;;;;;;4978832;28;20038;-57
2021/12/19 01:27:02;;;;;;;117.93;35.80;;;5.80;99.90;;;;;;4978556;28;20492;-57
2021/12/19 01:29:27;;;;;;;113.15;36.88;;;5.80;99.90;;;;;;4983783;28;20114;-58
2021/12/19 01:31:53;;;;;;;160.07;35.72;;;5.80;99.90;;;;;;4982612;28;20161;-57
2021/12/19 01:34:19;;;;;;;174.75;37.05;;;5.80;99.90;;;;;;4981408;28;20034;-53
2021/12/19 01:36:45;;;;;;;164.57;33.72;;;5.90;99.90;;;;;;4990912;28;20042;-58
2021/12/19 01:39:11;;;;;;;277.50;40.08;;;5.80;99.90;;;;;;4992551;28;20045;-54
2021/12/19 01:41:50;;;;;;;172.48;34.90;;;5.80;99.90;;;;;;4986858;28;20038;-58
2021/12/19 01:44:16;;;;;;;118.32;34.85;;;5.80;99.90;;;;;;4986439;28;20038;-55
2021/12/19 01:46:42;;;;;;;122.70;33.90;;;5.80;99.90;;;;;;4984471;28;20494;-57
2021/12/19 01:49:08;;;;;;;110.05;34.08;;;5.80;99.90;;;;;;4976115;28;20412;-58
2021/12/19 01:51:34;;;;;;;175.13;36.22;;;5.80;99.90;;;;;;4988471;28;20019;-56
2021/12/19 01:53:59;;;;;;;194.95;37.65;;;5.80;99.90;;;;;;4990284;28;20022;-56
2021/12/19 01:56:25;;;;;;;121.15;37.13;;;5.80;99.90;;;;;;4990960;28;20169;-57
2021/12/19 01:58:50;;;;;;;236.13;40.00;;;5.80;99.90;;;;;;4988979;28;20618;-60
2021/12/19 02:01:16;;;;;;;113.10;34.40;;;5.80;99.90;;;;;;4978316;28;20049;-60
2021/12/19 02:03:41;;;;;;;114.38;33.20;;;5.80;99.90;;;;;;4989887;28;20038;-57
2021/12/19 02:06:08;;;;;;;116.15;34.72;;;5.80;99.90;;;;;;4987626;28;20117;-56
2021/12/19 02:08:33;;;;;;;137.32;37.10;;;5.90;99.90;;;;;;5003661;28;20060;-58
2021/12/19 02:10:59;;;;;;;112.15;35.45;;;5.80;99.90;;;;;;4980684;28;20782;-57
2021/12/19 02:13:24;;;;;;;133.73;37.15;;;5.80;99.90;;;;;;4987023;28;20181;-56
2021/12/19 02:15:50;;;;;;;258.98;41.13;;;5.90;99.90;;;;;;4987316;28;20026;-57
2021/12/19 02:18:19;;;;;;;141.75;36.33;;;5.80;99.90;;;;;;4979664;28;20508;-58
2021/12/19 02:20:52;;;;;;;152.38;37.53;;;5.90;99.90;;;;;;4984840;28;20027;-57
2021/12/19 02:23:20;;;;;;;156.07;36.97;;;5.80;99.90;;;;;;4975998;28;20042;-57
2021/12/19 02:25:46;;;;;;;426.33;49.97;;;5.80;99.90;;;;;;4981303;28;20026;-54
2021/12/19 02:28:12;;;;;;;133.93;36.38;;;5.80;99.90;;;;;;4981619;28;20019;-59
2021/12/19 02:30:38;;;;;;;149.57;37.53;;;5.80;99.90;;;;;;4988339;28;20703;-57
2021/12/19 02:33:14;;;;;;;125.13;35.00;;;5.80;99.90;;;;;;4983356;28;20025;-55
2021/12/19 02:35:45;;;;;;;161.93;37.13;;;5.80;99.90;;;;;;4987036;28;20054;-58
2021/12/19 02:38:35;;;;;;;134.68;37.15;;;5.80;99.90;;;;;;4988477;28;20023;-58
2021/12/19 02:49:23;;;;;;;203.88;36.00;;;5.80;99.90;;;;;;4981970;28;20122;-54
2021/12/19 02:51:51;;;;;;;144.98;33.97;;;5.80;99.90;;;;;;4982288;28;20045;-58
2021/12/19 02:54:17;;;;;;;113.75;32.63;;;5.80;99.90;;;;;;4975111;28;20023;-57
2021/12/19 02:56:43;;;;;;;147.45;33.13;;;5.90;99.90;;;;;;4975415;28;20022;-54
2021/12/19 02:59:08;;;;;;;160.00;34.80;;;5.90;99.90;;;;;;4978464;28;20033;-56
2021/12/19 03:01:34;;;;;;;109.40;32.42;;;5.90;99.90;;;;;;4967307;28;20559;-57
2021/12/19 03:03:59;;;;;;;142.57;35.42;;;5.80;99.90;;;;;;4976722;28;20026;-54
2021/12/19 03:06:25;;;;;;;146.05;34.28;;;5.80;99.90;;;;;;4980429;28;21311;-57
2021/12/19 03:08:52;;;;;;;158.18;36.03;;;5.90;99.90;;;;;;4987628;28;20026;-56
2021/12/19 03:19:29;;;;;;;89.35;29.55;;;5.90;99.90;;;;;;4983260;28;20046;-57
2021/12/19 03:21:55;;;;;;;97.70;29.55;;;5.90;99.90;;;;;;4987991;28;20459;-57
2021/12/19 03:24:20;;;;;;;105.68;32.28;;;5.80;99.90;;;;;;4987799;28;20034;-52
2021/12/19 03:26:46;;;;;;;107.80;32.00;;;5.90;99.90;;;;;;4986786;28;20030;-56
2021/12/19 03:29:11;;;;;;;95.45;32.67;;;5.90;99.90;;;;;;4989906;28;20022;-57
2021/12/19 03:31:37;;;;;;;95.80;33.38;;;5.90;99.90;;;;;;4990732;28;20036;-59
2021/12/19 03:34:03;;;;;;;96.85;32.58;;;5.90;99.90;;;;;;4977976;28;20031;-54
2021/12/19 03:36:28;;;;;;;79.93;29.25;;;6.00;99.90;;;;;;4972192;28;20034;-57
2021/12/19 03:38:58;;;;;;;80.85;30.63;;;5.90;99.90;;;;;;4988219;28;20096;-59
2021/12/19 03:41:33;;;;;;;89.57;29.83;;;5.90;99.90;;;;;;4988955;28;20496;-60
2021/12/19 03:44:00;;;;;;;71.75;29.02;;;5.90;99.90;;;;;;4991606;28;20030;-60
2021/12/19 03:46:25;;;;;;;87.65;28.63;;;6.00;99.90;;;;;;4992730;28;20112;-57
2021/12/19 03:48:51;;;;;;;74.00;28.73;;;6.00;99.90;;;;;;4992484;28;20472;-59
2021/12/19 03:51:16;;;;;;;78.28;28.25;;;6.00;99.90;;;;;;4988827;28;21719;-58
2021/12/19 03:53:42;;;;;;;97.57;29.92;;;5.90;99.90;;;;;;4984905;28;20041;-57
2021/12/19 03:56:07;;;;;;;78.95;28.05;;;5.90;99.90;;;;;;4993547;28;20697;-58
2021/12/19 03:58:33;;;;;;;78.93;28.83;;;6.00;99.90;;;;;;4988560;28;20404;-57
2021/12/19 04:01:01;;;;;;;71.80;27.65;;;6.00;99.90;;;;;;4987612;28;22013;-59
2021/12/19 04:03:28;;;;;;;65.90;26.50;;;6.00;99.90;;;;;;4967694;28;20385;-54
2021/12/19 04:05:54;;;;;;;65.53;26.13;;;6.00;99.90;;;;;;4985895;28;20034;-58
2021/12/19 04:08:20;;;;;;;62.75;25.33;;;6.00;99.90;;;;;;4990605;28;20033;-55
2021/12/19 04:10:48;;;;;;;58.58;24.08;;;6.00;99.90;;;;;;4990950;28;20038;-57
2021/12/19 04:13:15;;;;;;;60.40;25.08;;;6.00;99.90;;;;;;4990555;28;20037;-57
2021/12/19 04:15:40;;;;;;;57.95;24.63;;;6.00;99.90;;;;;;4990734;28;20026;-57
2021/12/19 04:18:06;;;;;;;60.50;24.45;;;6.00;99.90;;;;;;4989211;28;20037;-58
2021/12/19 04:20:32;;;;;;;57.35;23.63;;;6.00;99.90;;;;;;4990722;28;20158;-58
2021/12/19 04:22:58;;;;;;;54.30;23.25;;;5.90;99.90;;;;;;4990342;28;20034;-58
2021/12/19 04:25:23;;;;;;;55.92;24.27;;;5.90;99.90;;;;;;4990798;28;20099;-56
2021/12/19 04:27:49;;;;;;;51.67;23.80;;;6.00;99.90;;;;;;4987397;28;20705;-59
2021/12/19 04:30:18;;;;;;;52.15;23.85;;;5.90;99.90;;;;;;4988852;28;20165;-54
2021/12/19 04:32:47;;;;;;;55.75;25.63;;;6.00;99.90;;;;;;4990405;28;20101;-60
2021/12/19 04:35:15;;;;;;;49.58;25.08;;;5.90;99.90;;;;;;4991405;28;20030;-51
2021/12/19 04:41:12;;;;;;;51.17;23.65;;;5.90;99.90;;;;;;4990956;28;20562;-56
2021/12/19 04:44:08;;;;;;;51.65;22.52;;;5.90;99.90;;;;;;4985008;28;20045;-56
2021/12/19 04:51:53;;;;;;;47.03;23.02;;;6.00;99.90;;;;;;4989892;28;20081;-60
2021/12/19 04:57:08;;;;;;;47.38;22.85;;;5.90;99.90;;;;;;4989263;28;20032;-57
2021/12/19 05:15:25;;;;;;;49.45;24.27;;;5.90;99.90;;;;;;4988687;28;20093;-58
2021/12/19 05:17:54;;;;;;;49.90;25.65;;;5.90;99.90;;;;;;4987876;28;20018;-59
2021/12/19 05:20:23;;;;;;;48.17;22.73;;;5.90;99.90;;;;;;4989066;28;20033;-54
2021/12/19 05:22:52;;;;;;;56.83;25.88;;;5.90;99.90;;;;;;4987067;28;20113;-57
2021/12/19 05:25:18;;;;;;;55.42;25.00;;;5.90;99.90;;;;;;4986721;28;20081;-59
2021/12/19 05:27:52;;;;;;;51.88;25.45;;;5.90;99.90;;;;;;4990550;28;20041;-57
2021/12/19 05:30:19;;;;;;;57.22;27.42;;;5.90;99.90;;;;;;4988475;28;20034;-58
2021/12/19 05:32:46;;;;;;;55.13;26.83;;;6.00;99.90;;;;;;4988475;28;20023;-56
2021/12/19 05:35:16;;;;;;;53.10;26.98;;;6.00;99.90;;;;;;4989145;28;20050;-51
2021/12/19 05:45:55;;;;;;;60.30;27.00;;;6.00;99.90;;;;;;4989521;28;20069;-57
2021/12/19 05:48:20;;;;;;;59.65;27.40;;;6.00;99.90;;;;;;4986885;28;20088;-59
2021/12/19 05:50:46;;;;;;;61.72;28.23;;;5.90;99.90;;;;;;4990271;28;20022;-59
2021/12/19 05:53:12;;;;;;;57.55;27.88;;;5.90;99.90;;;;;;4988794;28;20753;-50
2021/12/19 05:55:39;;;;;;;58.90;29.05;;;5.90;99.90;;;;;;4985856;28;20042;-57
2021/12/19 05:58:04;;;;;;;59.38;27.58;;;5.90;99.90;;;;;;4988262;28;20080;-57
2021/12/19 06:00:32;;;;;;;58.25;27.42;;;5.90;99.90;;;;;;4988661;28;20034;-58
2021/12/19 06:02:58;;;;;;;55.03;26.73;;;5.90;99.90;;;;;;4973045;28;20058;-56
2021/12/19 06:05:24;;;;;;;61.45;27.77;;;5.90;99.90;;;;;;4982689;28;20037;-57
2021/12/19 06:07:50;;;;;;;53.45;26.90;;;5.90;99.90;;;;;;4987199;28;20034;-55
2021/12/19 06:10:15;;;;;;;59.97;27.85;;;6.00;99.90;;;;;;4989866;28;20026;-58
2021/12/19 06:12:41;;;;;;;60.17;28.80;;;6.00;99.90;;;;;;4988151;28;20385;-53
2021/12/19 06:15:09;;;;;;;55.15;26.55;;;6.00;99.90;;;;;;4988647;28;20117;-55
2021/12/19 06:17:39;;;;;;;57.15;26.50;;;5.90;99.90;;;;;;4985630;28;20026;-58
2021/12/19 06:20:06;;;;;;;61.30;28.85;;;6.00;99.90;;;;;;4987156;28;20026;-56
2021/12/19 06:22:39;;;;;;;53.67;27.10;;;6.00;99.90;;;;;;5044430;28;20519;-54
2021/12/19 06:25:05;;;;;;;51.63;26.35;;;6.00;99.90;;;;;;5044952;28;20029;-57
2021/12/19 06:27:31;;;;;;;52.30;27.15;;;6.00;99.90;;;;;;5039072;28;20036;-57
2021/12/19 06:29:57;;;;;;;55.83;29.98;;;6.00;99.90;;;;;;5038071;28;21120;-58
2021/12/19 06:32:22;;;;;;;47.72;25.55;;;5.90;99.90;;;;;;5041663;28;20033;-57
2021/12/19 06:34:48;;;;;;;53.63;26.90;;;5.90;99.90;;;;;;5045685;28;20036;-57
2021/12/19 06:37:13;;;;;;;53.67;26.45;;;5.90;99.90;;;;;;5045030;28;20479;-51
2021/12/19 06:39:39;;;;;;;54.22;26.73;;;5.90;99.90;;;;;;5045551;28;20591;-57
2021/12/19 06:42:06;;;;;;;52.13;27.38;;;5.90;99.90;;;;;;5039809;28;20032;-53
2021/12/19 06:44:33;;;;;;;55.47;27.77;;;5.90;99.90;;;;;;5042389;28;20061;-56
2021/12/19 06:47:00;;;;;;;58.15;28.58;;;5.90;99.90;;;;;;5044130;28;20029;-56
2021/12/19 06:49:26;;;;;;;57.03;26.58;;;5.90;99.90;;;;;;5039985;28;20021;-54
2021/12/19 06:51:51;;;;;;;50.72;27.48;;;5.90;99.90;;;;;;5044720;28;20385;-56
2021/12/19 06:54:17;;;;;;;58.63;27.40;;;6.00;99.90;;;;;;5043518;28;20475;-59
2021/12/19 06:56:42;;;;;;;59.50;27.70;;;6.00;99.90;;;;;;5043231;28;20037;-56
2021/12/19 06:59:08;;;;;;;59.35;27.67;;;6.00;99.90;;;;;;5030952;28;20037;-56
2021/12/19 07:01:36;;;;;;;58.80;27.35;;;6.00;99.90;;;;;;5020299;28;20025;-59
2021/12/19 07:04:02;;;;;;;62.25;29.52;;;6.00;99.90;;;;;;5023591;28;20037;-58
2021/12/19 07:06:28;;;;;;;53.25;27.25;;;6.00;99.90;;;;;;5024187;28;20041;-58
2021/12/19 07:08:53;;;;;;;58.00;27.02;;;6.00;99.90;;;;;;5023218;28;20046;-55
2021/12/19 07:11:19;;;;;;;55.25;26.63;;;6.00;99.90;;;;;;5021586;28;20132;-58
2021/12/19 07:13:44;;;;;;;53.78;26.48;;;6.00;99.90;;;;;;5021656;28;20029;-54
2021/12/19 07:16:10;;;;;;;57.53;25.77;;;6.00;99.90;;;;;;5019504;28;20037;-56
2021/12/19 07:18:36;;;;;;;55.08;26.83;;;5.90;99.90;;;;;;5022579;28;20029;-58
2021/12/19 07:21:04;;;;;;;56.13;25.67;;;6.00;99.90;;;;;;5023307;28;20506;-56
2021/12/19 07:23:30;;;;;;;67.82;26.92;;;5.90;99.90;;;;;;5022080;28;20033;-57
2021/12/19 07:25:56;;;;;;;61.70;25.83;;;5.90;99.90;;;;;;5024993;28;20495;-54
2021/12/19 07:28:22;;;;;;;58.65;27.88;;;5.90;99.90;;;;;;5019064;28;20029;-55
2021/12/19 07:30:48;;;;;;;65.68;26.77;;;5.90;99.90;;;;;;5023745;28;20046;-54
2021/12/19 07:33:14;;;;;;;61.67;26.13;;;5.90;99.90;;;;;;5014160;28;20038;-50
2021/12/19 07:35:42;;;;;;;61.65;26.20;;;5.90;99.90;;;;;;5010614;28;20391;-57
2021/12/19 07:38:10;;;;;;;57.70;26.35;;;6.00;99.90;;;;;;5008346;28;20038;-59
2021/12/19 07:40:38;;;;;;;58.75;27.25;;;6.00;99.90;;;;;;5007634;28;20030;-59
2021/12/19 07:43:08;;;;;;;64.97;28.63;;;5.90;99.90;;;;;;5007445;28;20037;-55
2021/12/19 07:45:34;;;;;;;57.47;26.85;;;5.90;99.90;;;;;;5010149;28;20034;-55
2021/12/19 07:47:59;;;;;;;57.67;25.50;;;5.90;99.90;;;;;;5009779;28;20389;-58
2021/12/19 07:50:26;;;;;;;58.00;27.15;;;5.90;99.90;;;;;;5006941;28;20026;-57
2021/12/19 07:52:52;;;;;;;59.97;25.90;;;6.00;99.90;;;;;;5008120;28;20026;-58
2021/12/19 07:55:18;;;;;;;55.30;22.75;;;5.90;99.90;;;;;;5010927;28;20030;-58
2021/12/19 07:57:43;;;;;;;57.20;26.45;;;5.90;99.90;;;;;;5002747;28;20034;-56
2021/12/19 08:00:11;;;;;;;60.83;25.05;;;5.90;99.90;;;;;;5003844;28;20506;-57
2021/12/19 08:02:37;;;;;;;61.42;24.73;;;5.90;99.90;;;;;;4995358;28;20084;-59
2021/12/19 08:05:03;;;;;;;53.33;24.58;;;5.90;99.90;;;;;;5009730;28;20061;-56
2021/12/19 08:07:28;;;;;;;47.63;21.73;;;5.90;99.90;;;;;;5010314;28;20042;-57
2021/12/19 08:10:13;;;;;;;52.70;23.75;;;5.90;99.90;;;;;;5008626;28;20044;-57
2021/12/19 08:12:38;;;;;;;;;;;5.90;99.90;;;;;;5006049;28;20254;-59
2021/12/19 08:15:06;;;;;;;43.95;21.02;;;5.90;99.90;;;;;;5007878;28;19909;-57
2021/12/19 08:17:32;;;;;;;49.63;20.42;;;5.90;99.90;;;;;;5007091;28;20068;-57
2021/12/19 08:19:59;;;;;;;45.00;20.10;;;5.80;99.90;;;;;;5010621;28;20061;-57
2021/12/19 08:22:26;;;;;;;45.53;18.42;;;5.90;99.90;;;;;;5005528;28;20026;-54
2021/12/19 08:24:52;;;;;;;35.42;16.08;;;5.90;99.90;;;;;;5005467;28;20542;-52
2021/12/19 08:27:17;;;;;;;44.30;20.33;;;5.90;99.90;;;;;;5007182;28;20038;-59
2021/12/19 08:29:43;;;;;;;46.28;20.27;;;5.90;99.90;;;;;;5006019;28;20022;-57
2021/12/19 08:32:09;;;;;;;38.33;18.52;;;6.00;99.90;;;;;;5006606;28;20117;-56
2021/12/19 08:34:35;;;;;;;35.03;15.98;;;5.90;99.90;;;;;;5005999;28;20029;-57
2021/12/19 08:37:02;;;;;;;37.10;16.77;;;5.90;99.90;;;;;;5006447;28;20361;-59
2021/12/19 08:39:28;;;;;;;40.65;18.05;;;5.90;99.90;;;;;;5003171;28;20030;-58
2021/12/19 08:41:54;;;;;;;40.72;16.65;;;5.90;99.90;;;;;;5002201;28;20097;-53
2021/12/19 08:44:20;;;;;;;40.97;17.80;;;5.90;99.90;;;;;;5008094;28;20476;-54
2021/12/19 08:46:46;;;;;;;40.17;17.50;;;5.90;99.90;;;;;;5003978;28;20027;-57
2021/12/19 08:49:11;;;;;;;38.92;18.20;;;5.90;99.90;;;;;;5007747;28;20439;-57
2021/12/19 08:51:39;;;;;;;44.50;17.52;;;5.80;99.90;;;;;;5007026;28;20034;-53
2021/12/19 08:54:06;;;;;;;41.33;17.45;;;5.90;99.90;;;;;;5008062;28;20042;-52
2021/12/19 08:56:33;;;;;;;35.15;16.48;;;5.90;99.90;;;;;;5007631;28;20117;-58
2021/12/19 08:58:59;;;;;;;42.40;16.35;;;5.80;99.90;;;;;;5005565;28;20038;-54
2021/12/19 09:01:25;;;;;;;36.67;15.98;;;5.90;99.90;;;;;;5005730;28;20080;-55
2021/12/19 09:03:50;;;;;;;31.90;15.88;;;5.90;99.90;;;;;;4990703;28;20033;-57
2021/12/19 09:06:16;;;;;;;36.13;15.63;;;5.90;99.90;;;;;;5004179;28;20101;-58
2021/12/19 09:08:41;;;;;;;34.08;14.93;;;6.00;99.90;;;;;;5005593;28;20095;-58
2021/12/19 09:11:07;;;;;;;34.45;14.18;;;6.00;99.90;;;;;;5006368;28;20037;-57
2021/12/19 09:13:33;;;;;;;38.30;17.45;;;6.00;99.90;;;;;;5006099;28;20072;-58
2021/12/19 09:16:00;;;;;;;35.65;15.88;;;6.00;99.90;;;;;;5006831;28;20471;-58
2021/12/19 09:18:26;;;;;;;34.75;16.58;;;6.00;99.90;;;;;;5007983;28;20033;-58
2021/12/19 09:20:52;;;;;;;38.22;17.65;;;6.00;99.90;;;;;;5005228;28;20223;-54
2021/12/19 09:23:18;;;;;;;30.17;16.25;;;6.00;99.90;;;;;;5005920;28;20087;-56
2021/12/19 09:25:44;;;;;;;32.67;15.55;;;6.00;99.90;;;;;;5007704;28;20096;-57
2021/12/19 09:28:09;;;;;;;32.08;14.93;;;5.90;99.90;;;;;;5007637;28;20109;-59
2021/12/19 09:30:35;;;;;;;26.90;12.82;;;6.00;99.90;;;;;;5005109;28;20133;-58
2021/12/19 09:33:01;;;;;;;22.83;13.32;;;5.90;99.90;;;;;;5006038;28;20018;-57
2021/12/19 09:35:27;;;;;;;22.95;12.35;;;5.90;99.90;;;;;;5004216;28;20045;-59
2021/12/19 09:37:53;;;;;;;23.60;13.15;;;5.90;99.90;;;;;;5008016;28;20675;-58
2021/12/19 09:40:22;;;;;;;27.50;13.93;;;5.90;99.90;;;;;;5005633;28;20018;-59
2021/12/19 09:42:50;;;;;;;24.17;12.27;;;5.90;99.90;;;;;;5004946;28;20025;-58
2021/12/19 09:45:18;;;;;;;22.17;11.82;;;5.90;99.90;;;;;;5008236;28;20117;-57
2021/12/19 09:47:44;;;;;;;20.08;11.73;;;6.00;99.90;;;;;;5005271;28;20026;-56
2021/12/19 09:50:11;;;;;;;22.52;11.63;;;6.00;99.90;;;;;;5008102;28;20022;-57
2021/12/19 09:52:37;;;;;;;24.45;12.85;;;6.00;99.90;;;;;;5006837;28;20089;-58
2021/12/19 09:55:04;;;;;;;22.13;10.93;;;5.90;99.90;;;;;;5007651;28;20492;-56
2021/12/19 09:57:30;;;;;;;29.83;12.85;;;5.90;99.90;;;;;;5008186;28;20042;-58
2021/12/19 09:59:55;;;;;;;19.38;9.55;;;6.00;99.90;;;;;;5008530;28;20030;-56
2021/12/19 10:02:21;;;;;;;19.35;10.02;;;6.00;99.90;;;;;;4990938;28;20054;-56
2021/12/19 10:04:48;;;;;;;18.52;9.90;;;6.00;99.90;;;;;;5007090;28;20554;-58
2021/12/19 10:07:23;;;;;;;16.80;9.23;;;6.00;99.90;;;;;;5005310;28;20030;-53
2021/12/19 10:10:12;;;;;;;15.35;8.38;;;6.00;99.90;;;;;;5007277;28;20108;-55
2021/12/19 10:15:12;;;;;;;14.57;8.55;;;6.10;99.90;;;;;;5005605;28;20057;-56
2021/12/19 10:17:39;;;;;;;15.90;8.38;;;6.10;99.90;;;;;;5005160;28;20108;-56
2021/12/19 10:20:07;;;;;;;16.48;7.80;;;6.10;99.90;;;;;;5006119;28;20032;-56
2021/12/19 10:22:33;;;;;;;10.88;6.68;;;6.10;99.90;;;;;;5006519;28;20029;-57
2021/12/19 10:25:13;;;;;;;11.10;5.72;;;6.10;99.90;;;;;;5008218;28;20033;-54
2021/12/19 10:27:44;;;;;;;13.30;6.20;;;6.10;99.90;;;;;;5005248;28;20030;-56
2021/12/19 10:30:21;;;;;;;12.10;6.15;;;6.00;99.90;;;;;;5008015;28;20514;-57
2021/12/19 10:33:11;;;;;;;11.00;6.07;;;6.10;99.90;;;;;;5007917;28;20113;-59
2021/12/19 10:35:41;;;;;;;9.43;5.40;;;6.10;99.90;;;;;;5008909;28;20103;-59
2021/12/19 10:38:20;;;;;;;9.25;5.68;;;6.10;99.90;;;;;;5007879;28;20113;-58
2021/12/19 10:40:50;;;;;;;10.18;5.20;;;6.20;99.90;;;;;;5003449;28;20035;-59
2021/12/19 10:43:17;;;;;;;10.40;6.20;;;6.20;99.90;;;;;;5005668;28;20116;-52
2021/12/19 10:46:05;;;;;;;11.40;6.07;;;6.30;99.90;;;;;;5008011;28;20056;-56
2021/12/19 10:48:38;;;;;;;13.93;6.93;;;6.30;99.90;;;;;;5005706;28;20391;-55
2021/12/19 10:51:16;;;;;;;11.00;6.65;;;6.20;99.90;;;;;;5002279;28;20034;-53
2021/12/19 10:53:44;;;;;;;18.85;7.55;;;6.20;99.90;;;;;;5006724;28;20414;-56
2021/12/19 10:56:11;;;;;;;13.90;9.05;;;6.20;99.90;;;;;;5001107;28;20033;-56
2021/12/19 10:58:43;;;;;;;16.42;9.70;;;6.10;99.90;;;;;;5005545;28;20038;-54
2021/12/19 11:01:18;;;;;;;18.80;10.10;;;6.10;99.90;;;;;;5007075;28;20029;-57
2021/12/19 11:03:52;;;;;;;17.88;10.07;;;6.10;99.90;;;;;;4990923;28;20431;-56
2021/12/19 11:06:25;;;;;;;;;;;6.10;99.90;;;;;;5007365;28;20030;-58
2021/12/19 11:08:52;;;;;;;15.07;9.68;;;6.10;99.90;;;;;;5010421;28;19916;-58
2021/12/19 11:11:41;;;;;;;15.05;9.32;;;6.10;99.90;;;;;;5008461;28;20029;-56
2021/12/19 11:14:10;;;;;;;15.73;9.45;;;6.10;99.90;;;;;;5006405;28;20574;-56
2021/12/19 11:16:35;;;;;;;16.63;9.90;;;6.20;99.90;;;;;;5010291;28;20028;-56
2021/12/19 11:19:01;;;;;;;15.13;9.00;;;6.20;99.90;;;;;;5008544;28;20042;-58
2021/12/19 11:21:32;;;;;;;18.88;9.85;;;6.20;99.90;;;;;;5010637;28;20480;-58
2021/12/19 11:23:58;;;;;;;16.20;9.73;;;6.30;99.90;;;;;;5010586;28;20065;-57
2021/12/19 11:26:24;;;;;;;16.15;9.35;;;6.20;99.90;;;;;;5006637;28;20026;-57
2021/12/19 11:28:52;;;;;;;13.07;8.65;;;6.20;99.90;;;;;;5008800;28;20034;-59
2021/12/19 11:31:19;;;;;;;13.45;7.40;;;6.30;99.90;;;;;;5010599;28;20053;-57
2021/12/19 11:34:07;;;;;;;14.98;7.70;;;6.30;99.90;;;;;;5007139;28;20388;-57
2021/12/19 11:36:37;;;;;;;13.07;7.07;;;6.30;99.90;;;;;;4995369;28;20064;-57
2021/12/19 11:39:04;;;;;;;12.30;6.78;;;6.40;99.90;;;;;;5012503;28;20025;-57
2021/12/19 11:41:31;;;;;;;13.98;7.35;;;6.40;99.90;;;;;;5007147;28;20038;-56
2021/12/19 11:44:01;;;;;;;12.10;5.10;;;6.40;99.90;;;;;;5006921;28;20033;-58
2021/12/19 11:46:50;;;;;;;8.43;4.95;;;6.50;99.90;;;;;;5011926;28;20056;-56
2021/12/19 11:49:23;;;;;;;8.30;4.93;;;6.50;99.90;;;;;;5010186;28;20033;-49
2021/12/19 11:52:09;;;;;;;8.67;5.13;;;6.50;99.90;;;;;;5012417;28;20446;-57
2021/12/19 11:54:34;;;;;;;7.53;4.60;;;6.30;99.90;;;;;;5016107;28;20281;-59
2021/12/19 11:57:08;;;;;;;7.80;5.03;;;6.30;99.90;;;;;;5007176;28;20442;-53
2021/12/19 11:59:34;;;;;;;7.32;4.32;;;6.40;99.90;;;;;;5000990;28;20034;-57
2021/12/19 12:02:25;;;;;;;7.88;4.28;;;6.40;99.90;;;;;;5008239;28;20125;-56
2021/12/19 12:05:15;;;;;;;7.90;4.18;;;6.50;99.90;;;;;;5013438;28;20037;-59
2021/12/19 12:08:06;;;;;;;7.03;4.13;;;6.40;99.90;;;;;;5005756;28;20033;-58
2021/12/19 12:10:53;;;;;;;6.55;4.32;;;6.40;99.90;;;;;;5004696;28;20042;-57
2021/12/19 12:13:26;;;;;;;7.05;3.63;;;6.40;99.90;;;;;;5010074;28;20092;-58
2021/12/19 12:16:07;;;;;;;4.63;3.53;;;6.40;99.90;;;;;;5008501;28;20747;-57
2021/12/19 12:18:38;;;;;;;6.03;3.70;;;6.40;99.90;;;;;;5010331;28;20036;-57
2021/12/19 12:21:20;;;;;;;6.13;4.20;;;6.40;99.90;;;;;;5000978;28;20033;-56
2021/12/19 12:23:53;;;;;;;8.95;5.45;;;6.40;99.90;;;;;;5002658;28;20101;-56
2021/12/19 12:26:32;;;;;;;8.07;5.70;;;6.40;99.90;;;;;;5005780;28;20105;-57
2021/12/19 12:28:57;;;;;;;8.10;5.63;;;6.30;99.90;;;;;;5006445;28;20787;-54
2021/12/19 12:31:26;;;;;;;8.38;5.68;;;6.40;99.90;;;;;;5009411;28;20033;-55
2021/12/19 12:33:54;;;;;;;8.13;5.40;;;6.30;99.90;;;;;;5005320;28;20038;-53
2021/12/19 12:36:20;;;;;;;8.45;5.50;;;6.30;99.90;;;;;;5005053;28;20033;-59
2021/12/19 12:38:50;;;;;;;7.50;5.60;;;6.20;99.90;;;;;;5007049;28;20034;-57
2021/12/19 12:41:40;;;;;;;8.88;5.38;;;6.30;99.90;;;;;;5007551;28;20037;-51
2021/12/19 12:44:17;;;;;;;7.82;4.90;;;6.30;99.90;;;;;;5011356;28;20033;-56
2021/12/19 12:46:43;;;;;;;9.27;4.43;;;6.30;99.90;;;;;;5012412;28;20025;-57
2021/12/19 12:49:14;;;;;;;8.25;4.68;;;6.30;99.90;;;;;;5017013;28;20026;-58
2021/12/19 12:51:48;;;;;;;8.40;4.05;;;6.40;99.90;;;;;;5014133;28;20113;-57
2021/12/19 12:54:25;;;;;;;6.50;3.88;;;6.30;99.90;;;;;;5010316;28;20072;-55
2021/12/19 12:56:56;;;;;;;8.88;4.00;;;6.20;99.90;;;;;;5010364;28;20026;-53
2021/12/19 12:59:32;;;;;;;4.78;3.20;;;6.30;99.90;;;;;;5010640;28;20025;-54
2021/12/19 13:02:12;;;;;;;6.28;3.83;;;6.30;99.90;;;;;;5008256;28;20026;-55
2021/12/19 13:04:41;;;;;;;8.00;4.20;;;6.30;99.90;;;;;;4999569;28;20106;-55
2021/12/19 13:07:11;;;;;;;8.60;4.45;;;6.30;99.90;;;;;;5008323;28;20030;-55
2021/12/19 13:09:45;;;;;;;5.80;3.95;;;6.20;99.90;;;;;;5015714;28;20537;-57
2021/12/19 13:12:24;;;;;;;7.28;4.07;;;6.20;99.90;;;;;;5007897;28;20484;-56
2021/12/19 13:14:53;;;;;;;7.05;4.55;;;6.20;99.90;;;;;;5003932;28;20052;-53
2021/12/19 13:17:27;;;;;;;6.22;4.72;;;6.20;99.90;;;;;;5007975;28;20026;-57
2021/12/19 13:20:01;;;;;;;12.68;4.47;;;6.10;99.90;;;;;;5003796;28;20030;-56
2021/12/19 13:22:29;;;;;;;7.88;5.18;;;6.20;99.90;;;;;;5000656;28;20039;-56
2021/12/19 13:24:58;;;;;;;10.02;6.28;;;6.20;99.90;;;;;;5005132;28;20021;-58
2021/12/19 13:27:31;;;;;;;10.77;6.07;;;6.20;99.90;;;;;;4997338;28;20105;-58
2021/12/19 13:30:04;;;;;;;12.25;7.00;;;6.20;99.90;;;;;;4993532;28;20615;-57
2021/12/19 13:32:52;;;;;;;11.17;7.10;;;6.20;99.90;;;;;;4995749;28;21550;-58
2021/12/19 13:35:17;;;;;;;13.20;7.82;;;6.10;99.90;;;;;;4997181;28;20030;-53
2021/12/19 13:38:07;;;;;;;13.10;8.82;;;6.20;99.90;;;;;;4995082;28;20036;-56
2021/12/19 13:40:35;;;;;;;19.73;9.98;;;6.10;99.90;;;;;;4998639;28;20042;-56
2021/12/19 13:43:14;;;;;;;15.93;9.80;;;6.10;99.90;;;;;;4995808;28;20046;-58
2021/12/19 13:46:01;;;;;;;13.60;8.48;;;6.10;99.90;;;;;;5008320;28;20113;-55
2021/12/19 13:48:35;;;;;;;14.75;9.77;;;6.10;99.90;;;;;;4998027;28;20022;-58
2021/12/19 13:51:07;;;;;;;15.40;9.25;;;6.10;99.90;;;;;;5019444;28;20044;-56